Ana Sayfa
METAR-TAF:

METAR-TAF

Havaalanları :

Hermosillo, Meksika

Enlem: 29-04N, Boylam: 110-57W, yükseklik: 211 m

Güncel hava durumu gözlemi

Rapor saat 13:02 UTC de 8 dakika önce yapıldı.
Rüzgar doğudan 4 kt
Sıcaklık 28°C
Nem 37%
Basınç 1014 hPa
Görüş mesafesi: 14.5 km
Açık gökyüzü

METAR: MMHO 271302Z 09004KT 9SM SKC 28/12 A2994 RMK ISOL CI HZY

Saat: 06:10 (13:10 UTC)

Tahmin

Rapor saat 03:15 UTC de 9 saat ve 55 dakika önce yapıldı.
Ayın 27'si saat 06 UTC'den ayın 28'si saat 06 UTC'ye kadar geçerli Tahmin
Rüzgar batıdan 5 kt
Görüş mesafesi: 10 km
25000 ft yükseklikte parçalı bulutlu
Ayın 27'si saat 1800 UTC'den
Rüzgar güneybatıdan 15 kt
Görüş mesafesi: 10 km
25000 ft yükseklikte parçalı çok bulutlu
Ayın 28'si saat 0500 UTC'den
Rüzgar batıdan 5 kt
Görüş mesafesi: 10 km
25000 ft yükseklikte parçalı bulutlu

TAF: MMHO 270315Z 2706/2806 26005KT P6SM SCT250 FM271800 23015KT P6SM BKN250 FM280500 26005KT P6SM SCT250

4.000'den fazla havaalanı için hava durumu gözlemleri ve tahminleri (METAR ve TAF raporları).

Kullanılabilir istasyonlar harita üzerinde sarı ve kırmızı noktalarla gösterilir.

İstasyonun adını görmek için fareyi noktanın üzerinde gezdirin.

Sonrasında hava gözlem ve tahminlerini görmek için tıklayın.

Haritayı değiştirmek için: yaklaştırmak için siyah artı işaretli yeşil düğmeye ve uzaklaştırmak için de eksi işaretli düğmeye hızla tıklayın; bitişik haritalar için yeşil okları kullanın.


METAR-TAF: